createdAt,value
2023-05-20T00:02:26.123Z,3.53
2023-05-20T00:04:54.450Z,5.00
2023-05-20T00:07:21.425Z,3.10
2023-05-20T00:09:48.270Z,3.27
2023-05-20T00:12:17.396Z,3.23
2023-05-20T00:14:46.717Z,3.17
2023-05-20T00:17:13.583Z,4.50
2023-05-20T00:19:40.639Z,3.50
2023-05-20T00:22:08.589Z,3.47
2023-05-20T00:24:37.686Z,3.30
2023-05-20T00:27:04.676Z,3.10
2023-05-20T00:29:31.701Z,3.97
2023-05-20T00:31:58.625Z,3.30
2023-05-20T00:34:25.532Z,3.97
2023-05-20T00:36:55.244Z,3.30
2023-05-20T00:39:24.383Z,3.60
2023-05-20T00:41:53.458Z,3.50
2023-05-20T00:44:24.150Z,6.03
2023-05-20T00:46:51.174Z,3.17
2023-05-20T00:49:18.516Z,4.07
2023-05-20T00:51:55.912Z,4.00
2023-05-20T00:54:22.773Z,4.00
2023-05-20T00:56:54.835Z,3.83
2023-05-20T00:59:21.759Z,3.57
2023-05-20T01:01:51.037Z,4.37
2023-05-20T01:04:18.437Z,4.27
2023-05-20T01:06:46.511Z,9.30
2023-05-20T01:09:15.821Z,4.27
2023-05-20T01:11:59.577Z,3.97
2023-05-20T01:14:30.307Z,4.17
2023-05-20T01:17:01.739Z,4.00
2023-05-20T01:19:41.184Z,3.03
2023-05-20T01:22:12.733Z,3.47
2023-05-20T01:24:42.220Z,3.83
2023-05-20T01:27:15.490Z,4.80
2023-05-20T01:29:44.330Z,4.17
2023-05-20T01:32:25.148Z,4.37
2023-05-20T01:34:55.481Z,4.23
2023-05-20T01:37:23.416Z,4.43
2023-05-20T01:39:51.428Z,5.37
2023-05-20T01:42:20.034Z,4.60
2023-05-20T01:44:48.712Z,4.60
2023-05-20T01:47:17.914Z,4.17
2023-05-20T01:49:47.921Z,5.70
2023-05-20T01:52:17.227Z,3.93
2023-05-20T01:54:51.092Z,4.20
2023-05-20T01:57:22.584Z,5.80
2023-05-20T01:59:51.182Z,4.50
2023-05-20T02:02:21.948Z,4.87
2023-05-20T02:04:50.849Z,5.13
2023-05-20T02:07:19.239Z,4.83
2023-05-20T02:09:47.479Z,4.43
2023-05-20T02:12:17.363Z,5.43
2023-05-20T02:14:45.758Z,5.57
2023-05-20T02:17:16.924Z,4.73
2023-05-20T02:19:45.600Z,5.30
2023-05-20T02:22:12.737Z,4.57
2023-05-20T02:24:43.987Z,5.77
2023-05-20T02:27:11.028Z,5.13
2023-05-20T02:29:37.895Z,4.90
2023-05-20T02:32:05.230Z,6.70
2023-05-20T02:34:32.650Z,4.50
2023-05-20T02:36:59.654Z,4.50
2023-05-20T02:39:29.110Z,8.63
2023-05-20T02:41:56.564Z,5.23
2023-05-20T02:44:23.947Z,5.50
2023-05-20T02:46:50.879Z,5.30
2023-05-20T02:49:17.773Z,5.33
2023-05-20T02:51:44.833Z,5.10
2023-05-20T02:54:16.581Z,5.17
2023-05-20T02:56:43.571Z,5.47
2023-05-20T02:59:10.415Z,6.03
2023-05-20T03:01:40.705Z,4.43
2023-05-20T03:04:08.462Z,5.17
2023-05-20T03:06:38.354Z,5.70
2023-05-20T03:09:06.020Z,5.60
2023-05-20T03:11:33.032Z,6.20
2023-05-20T03:14:02.229Z,5.90
2023-05-20T03:16:31.116Z,5.20
2023-05-20T03:19:00.112Z,5.27
2023-05-20T03:21:27.129Z,4.90
2023-05-20T03:23:54.039Z,5.03
2023-05-20T03:26:23.508Z,5.27
2023-05-20T03:28:50.874Z,4.70
2023-05-20T03:31:17.897Z,6.07
2023-05-20T03:33:46.313Z,5.87
2023-05-20T03:36:13.324Z,7.17
2023-05-20T03:38:40.251Z,6.67
2023-05-20T03:41:07.438Z,6.00
2023-05-20T03:43:34.408Z,7.70
2023-05-20T03:46:01.682Z,8.43
2023-05-20T03:48:29.074Z,6.83
2023-05-20T03:50:55.954Z,6.60
2023-05-20T03:53:22.830Z,6.67
2023-05-20T03:55:52.348Z,6.73
2023-05-20T03:58:21.058Z,8.70
2023-05-20T04:00:49.090Z,7.47
2023-05-20T04:03:20.860Z,7.57
2023-05-20T04:05:48.880Z,7.10
2023-05-20T04:08:20.138Z,8.67
2023-05-20T04:10:46.975Z,8.63
2023-05-20T04:13:14.706Z,7.17
2023-05-20T04:15:42.347Z,7.67
2023-05-20T04:18:10.581Z,8.53
2023-05-20T04:20:38.461Z,8.30
2023-05-20T04:23:05.366Z,7.83
2023-05-20T04:25:32.504Z,8.47
2023-05-20T04:28:00.370Z,6.10
2023-05-20T04:30:30.367Z,8.80
2023-05-20T04:32:57.570Z,8.03
2023-05-20T04:35:26.397Z,8.10
2023-05-20T04:37:56.502Z,9.03
2023-05-20T04:40:23.561Z,7.37
2023-05-20T04:42:51.265Z,7.97
2023-05-20T04:45:18.993Z,9.50
2023-05-20T04:47:46.181Z,7.10
2023-05-20T04:50:14.946Z,9.40
2023-05-20T04:52:43.144Z,13.13
2023-05-20T04:55:11.239Z,14.07
2023-05-20T04:57:42.604Z,9.43
2023-05-20T05:00:11.393Z,7.30
2023-05-20T05:02:39.219Z,11.00
2023-05-20T05:05:06.865Z,9.83
2023-05-20T05:07:34.010Z,12.27
2023-05-20T05:10:05.569Z,10.23
2023-05-20T05:12:35.015Z,11.63
2023-05-20T05:15:03.611Z,11.73
2023-05-20T05:17:30.685Z,11.60
2023-05-20T05:19:58.354Z,12.00
2023-05-20T05:22:27.051Z,15.63
2023-05-20T05:24:56.594Z,13.93
2023-05-20T05:27:25.872Z,11.40
2023-05-20T05:29:52.677Z,13.50
2023-05-20T05:32:20.584Z,10.37
2023-05-20T05:34:52.286Z,12.63
2023-05-20T05:37:21.836Z,12.93
2023-05-20T05:39:49.042Z,13.90
2023-05-20T05:42:15.982Z,14.17
2023-05-20T05:44:45.285Z,11.77
2023-05-20T05:47:12.363Z,12.27
2023-05-20T05:49:39.635Z,13.40
2023-05-20T05:52:07.178Z,13.23
2023-05-20T05:54:36.818Z,15.20
2023-05-20T05:57:06.400Z,10.67
2023-05-20T05:59:35.017Z,13.83
2023-05-20T06:02:05.101Z,10.73
2023-05-20T06:04:32.459Z,13.60
2023-05-20T06:06:59.587Z,9.93
2023-05-20T06:09:26.685Z,11.77
2023-05-20T06:11:53.932Z,12.80
2023-05-20T06:14:21.394Z,15.90
2023-05-20T06:16:48.706Z,13.20
2023-05-20T06:19:15.848Z,13.50
2023-05-20T06:21:42.915Z,13.00
2023-05-20T06:24:09.791Z,11.80
2023-05-20T06:26:38.943Z,13.97
2023-05-20T06:29:06.169Z,13.30
2023-05-20T06:31:33.840Z,15.30
2023-05-20T06:34:00.804Z,14.03
2023-05-20T06:36:27.645Z,14.10
2023-05-20T06:38:54.614Z,20.70
2023-05-20T06:41:24.559Z,13.00
2023-05-20T06:43:54.251Z,11.97
2023-05-20T06:46:49.942Z,10.10
2023-05-20T06:49:16.893Z,13.63
2023-05-20T06:51:44.499Z,13.67
2023-05-20T06:54:11.447Z,13.20
2023-05-20T06:56:40.799Z,12.47
2023-05-20T06:59:08.180Z,12.40
2023-05-20T07:01:35.931Z,14.00
2023-05-20T07:04:04.127Z,13.73
2023-05-20T07:06:33.673Z,13.27
2023-05-20T07:09:01.162Z,12.60
2023-05-20T07:11:30.234Z,12.53
2023-05-20T07:13:57.152Z,11.70
2023-05-20T07:16:25.666Z,13.00
2023-05-20T07:18:57.732Z,12.20
2023-05-20T07:21:24.959Z,9.87
2023-05-20T07:24:02.316Z,13.03
2023-05-20T07:26:36.551Z,10.83
2023-05-20T07:29:07.354Z,12.50
2023-05-20T07:31:34.220Z,9.70
2023-05-20T07:34:01.289Z,9.70
2023-05-20T07:36:29.185Z,10.37
2023-05-20T07:39:03.898Z,10.30
2023-05-20T07:41:34.995Z,10.13
2023-05-20T07:44:05.646Z,9.57
2023-05-20T07:46:35.125Z,11.50
2023-05-20T07:49:03.620Z,10.20
2023-05-20T07:51:31.970Z,8.37
2023-05-20T07:53:59.371Z,9.30
2023-05-20T07:56:26.694Z,8.80
2023-05-20T07:58:56.007Z,10.87
2023-05-20T08:01:26.228Z,9.27
2023-05-20T08:03:54.486Z,8.97
2023-05-20T08:06:28.757Z,8.77
2023-05-20T08:08:56.940Z,9.57
2023-05-20T08:11:29.168Z,8.53
2023-05-20T08:13:56.783Z,8.23
2023-05-20T08:16:27.061Z,8.30
2023-05-20T08:18:54.947Z,8.67
2023-05-20T08:21:21.923Z,9.27
2023-05-20T08:23:48.830Z,8.53
2023-05-20T08:26:15.881Z,9.00
2023-05-20T08:28:43.346Z,6.37
2023-05-20T08:31:11.034Z,7.30
2023-05-20T08:33:37.986Z,8.27
2023-05-20T08:36:05.517Z,8.30
2023-05-20T08:38:32.793Z,6.83
2023-05-20T08:41:03.870Z,7.93
2023-05-20T08:43:32.867Z,7.10
2023-05-20T08:46:05.466Z,9.30
2023-05-20T08:48:35.867Z,6.73
2023-05-20T08:51:10.013Z,7.03
2023-05-20T08:53:37.439Z,7.43
2023-05-20T08:56:06.716Z,7.97
2023-05-20T08:58:33.597Z,6.70
2023-05-20T09:01:03.353Z,6.90
2023-05-20T09:03:30.684Z,7.00
2023-05-20T09:06:12.981Z,7.30
2023-05-20T09:08:39.884Z,5.47
2023-05-20T09:11:09.772Z,8.83
2023-05-20T09:13:36.607Z,5.80
2023-05-20T09:16:06.026Z,7.50
2023-05-20T09:18:41.067Z,5.70
2023-05-20T09:21:10.371Z,5.20
2023-05-20T09:23:38.718Z,7.10
2023-05-20T09:26:05.884Z,4.70
2023-05-20T09:28:32.736Z,5.57
2023-05-20T09:31:00.340Z,5.50
2023-05-20T09:33:32.458Z,5.47
2023-05-20T09:36:04.853Z,5.13
2023-05-20T09:38:39.951Z,5.70
2023-05-20T09:41:16.054Z,7.30
2023-05-20T09:43:43.123Z,4.87
2023-05-20T09:46:11.038Z,5.30
2023-05-20T09:48:38.286Z,4.23
2023-05-20T09:51:06.350Z,5.13
2023-05-20T09:53:34.076Z,4.13
2023-05-20T09:56:03.374Z,5.20
2023-05-20T09:58:35.241Z,5.37
2023-05-20T10:01:09.221Z,4.00
2023-05-20T10:03:39.268Z,5.00
2023-05-20T10:06:37.015Z,3.83
2023-05-20T10:09:39.740Z,3.90
2023-05-20T10:12:24.541Z,4.63
2023-05-20T10:15:11.122Z,3.90
2023-05-20T10:17:54.133Z,9.57
2023-05-20T10:20:21.400Z,4.30
2023-05-20T10:22:57.732Z,4.47
2023-05-20T10:25:28.720Z,4.10
2023-05-20T10:28:11.980Z,5.27
2023-05-20T10:30:49.924Z,4.63
2023-05-20T10:33:21.107Z,6.47
2023-05-20T10:35:54.760Z,5.17
2023-05-20T10:38:26.600Z,4.77
2023-05-20T10:40:59.981Z,4.10
2023-05-20T10:43:32.849Z,9.40
2023-05-20T10:46:03.260Z,3.60
2023-05-20T10:48:35.240Z,4.10
2023-05-20T10:51:11.431Z,3.20
2023-05-20T10:53:48.914Z,3.50
2023-05-20T10:56:24.687Z,3.20
2023-05-20T10:58:53.216Z,3.53
2023-05-20T11:01:31.969Z,3.00
2023-05-20T11:04:01.004Z,4.10
2023-05-20T11:06:29.100Z,2.90
2023-05-20T11:09:09.233Z,3.60
2023-05-20T11:11:38.905Z,3.27
2023-05-20T11:14:05.786Z,3.60
2023-05-20T11:16:37.866Z,3.93
2023-05-20T11:19:14.761Z,3.83
2023-05-20T11:21:48.547Z,3.40
2023-05-20T11:24:31.371Z,3.60
2023-05-20T11:27:02.451Z,4.10
2023-05-20T11:29:34.084Z,4.07
2023-05-20T11:32:04.483Z,4.03
2023-05-20T11:34:38.295Z,3.80
2023-05-20T11:37:15.826Z,3.40
2023-05-20T11:39:44.882Z,4.20
2023-05-20T11:42:19.801Z,5.60
2023-05-20T11:44:49.345Z,4.30
2023-05-20T11:47:27.828Z,4.23
2023-05-20T11:49:56.742Z,3.63
2023-05-20T11:52:31.513Z,4.77
2023-05-20T11:55:00.726Z,4.00
2023-05-20T11:57:27.574Z,4.20
2023-05-20T11:59:56.690Z,4.13
2023-05-20T12:02:26.311Z,5.40
2023-05-20T12:04:58.456Z,4.73
2023-05-20T12:07:28.607Z,4.83
2023-05-20T12:09:58.028Z,5.37
2023-05-20T12:12:31.843Z,5.17
2023-05-20T12:15:06.511Z,5.70
2023-05-20T12:17:49.188Z,4.90
2023-05-20T12:20:22.408Z,6.23
2023-05-20T12:22:53.743Z,4.10
2023-05-20T12:25:28.082Z,7.07
2023-05-20T12:28:02.142Z,5.73
2023-05-20T12:30:31.512Z,6.03
2023-05-20T12:33:03.577Z,6.80
2023-05-20T12:35:46.955Z,10.20
2023-05-20T12:38:18.524Z,18.87
2023-05-20T12:40:47.742Z,7.07
2023-05-20T12:43:16.900Z,7.97
2023-05-20T12:45:45.988Z,7.00
2023-05-20T12:48:15.018Z,6.50
2023-05-20T12:50:46.478Z,7.27
2023-05-20T12:53:13.398Z,6.10
2023-05-20T12:55:42.603Z,7.17
2023-05-20T12:58:16.684Z,7.03
2023-05-20T13:00:48.277Z,6.57
2023-05-20T13:03:17.721Z,6.90
2023-05-20T13:05:44.711Z,5.93
2023-05-20T13:08:15.008Z,5.80
2023-05-20T13:10:46.996Z,6.53
2023-05-20T13:13:21.712Z,8.30
2023-05-20T13:15:51.518Z,6.20
2023-05-20T13:18:20.920Z,8.50
2023-05-20T13:20:52.695Z,5.60
2023-05-20T13:23:19.553Z,9.63
2023-05-20T13:25:53.572Z,9.80
2023-05-20T13:28:23.222Z,7.70
2023-05-20T13:30:56.764Z,6.93
2023-05-20T13:33:24.443Z,6.07
2023-05-20T13:35:53.745Z,6.47
2023-05-20T13:38:25.404Z,5.67
2023-05-20T13:40:59.421Z,5.90
2023-05-20T13:43:34.387Z,6.93
2023-05-20T13:46:06.329Z,5.60
2023-05-20T13:48:33.586Z,6.97
2023-05-20T13:51:07.381Z,11.63
2023-05-20T13:53:42.745Z,7.47
2023-05-20T13:56:12.413Z,6.90
2023-05-20T13:58:44.048Z,7.13
2023-05-20T14:01:16.923Z,10.77
2023-05-20T14:03:46.355Z,7.47
2023-05-20T14:06:18.883Z,6.80
2023-05-20T14:08:50.621Z,7.40
2023-05-20T14:11:22.485Z,8.10
2023-05-20T14:13:54.887Z,6.10
2023-05-20T14:16:21.901Z,9.23
2023-05-20T14:18:48.857Z,7.50
2023-05-20T14:21:19.418Z,8.30
2023-05-20T14:23:51.117Z,10.20
2023-05-20T14:26:18.016Z,9.90
2023-05-20T14:28:49.353Z,7.37
2023-05-20T14:31:23.278Z,6.03
2023-05-20T14:33:55.212Z,6.50
2023-05-20T14:36:24.596Z,11.83
2023-05-20T14:38:53.876Z,12.50
2023-05-20T14:41:26.235Z,7.73
2023-05-20T14:43:53.133Z,6.77
2023-05-20T14:46:22.529Z,7.20
2023-05-20T14:48:53.870Z,8.20
2023-05-20T14:51:20.747Z,7.27
2023-05-20T14:53:54.358Z,7.70
2023-05-20T14:56:23.866Z,9.23
2023-05-20T14:58:55.378Z,9.13
2023-05-20T15:01:22.335Z,7.33
2023-05-20T15:03:49.254Z,8.03
2023-05-20T15:06:18.473Z,9.10
2023-05-20T15:08:50.266Z,7.67
2023-05-20T15:11:24.179Z,7.53
2023-05-20T15:13:55.672Z,8.00
2023-05-20T15:16:25.090Z,8.60
2023-05-20T15:18:54.136Z,7.80
2023-05-20T15:21:21.680Z,9.47
2023-05-20T15:23:55.867Z,8.23
2023-05-20T15:26:22.710Z,8.33
2023-05-20T15:28:57.058Z,10.30
2023-05-20T15:31:26.342Z,7.43
2023-05-20T15:33:56.172Z,6.57
2023-05-20T15:36:28.075Z,7.30
2023-05-20T15:38:54.948Z,8.00
2023-05-20T15:41:28.614Z,6.87
2023-05-20T15:44:02.795Z,6.90
2023-05-20T15:46:31.922Z,7.63
2023-05-20T15:49:01.171Z,11.70
2023-05-20T15:51:32.339Z,9.37
2023-05-20T15:54:01.783Z,9.60
2023-05-20T15:56:36.351Z,5.83
2023-05-20T15:59:03.220Z,11.77
2023-05-20T16:01:30.445Z,7.23
2023-05-20T16:03:58.450Z,6.73
2023-05-20T16:06:32.775Z,9.17
2023-05-20T16:09:04.607Z,7.70
2023-05-20T16:11:38.882Z,8.43
2023-05-20T16:14:10.498Z,11.63
2023-05-20T16:16:42.128Z,10.73
2023-05-20T16:19:16.074Z,9.40
2023-05-20T16:21:47.557Z,7.07
2023-05-20T16:24:15.269Z,7.37
2023-05-20T16:26:44.719Z,11.63
2023-05-20T16:29:11.818Z,8.07
2023-05-20T16:31:47.213Z,10.40
2023-05-20T16:34:18.628Z,8.40
2023-05-20T16:36:47.944Z,7.30
2023-05-20T16:39:19.687Z,8.03
2023-05-20T16:41:54.413Z,6.70
2023-05-20T16:44:28.504Z,7.27
2023-05-20T16:46:57.800Z,6.90
2023-05-20T16:49:24.637Z,7.50
2023-05-20T16:51:54.001Z,7.30
2023-05-20T16:54:25.753Z,6.37
2023-05-20T16:56:57.408Z,6.17
2023-05-20T16:59:31.390Z,6.87
2023-05-20T17:02:03.340Z,7.73
2023-05-20T17:04:30.257Z,6.43
2023-05-20T17:07:01.900Z,7.57
2023-05-20T17:09:33.262Z,6.20
2023-05-20T17:12:07.222Z,9.23
2023-05-20T17:14:37.201Z,6.43
2023-05-20T17:17:06.696Z,6.13
2023-05-20T17:19:36.700Z,6.53
2023-05-20T17:22:05.850Z,5.90
2023-05-20T17:24:42.162Z,8.10
2023-05-20T17:27:11.656Z,7.10
2023-05-20T17:29:43.095Z,6.77
2023-05-20T17:32:12.592Z,6.30
2023-05-20T17:34:41.844Z,7.00
2023-05-20T17:37:14.184Z,7.13
2023-05-20T17:39:44.793Z,6.73
2023-05-20T17:42:13.842Z,6.73
2023-05-20T17:44:45.685Z,6.77
2023-05-20T17:47:15.607Z,6.50
2023-05-20T17:49:47.389Z,5.03
2023-05-20T17:52:19.126Z,8.93
2023-05-20T17:54:48.302Z,6.40
2023-05-20T17:57:20.452Z,7.00
2023-05-20T17:59:47.422Z,6.20
2023-05-20T18:02:19.400Z,7.53
2023-05-20T18:04:48.501Z,6.90
2023-05-20T18:07:20.743Z,6.70
2023-05-20T18:09:52.113Z,6.97
2023-05-20T18:12:23.601Z,8.63
2023-05-20T18:14:52.829Z,7.00
2023-05-20T18:17:22.134Z,7.07
2023-05-20T18:19:51.760Z,8.50
2023-05-20T18:22:18.716Z,6.70
2023-05-20T18:24:52.934Z,13.33
2023-05-20T18:27:22.088Z,6.83
2023-05-20T18:29:53.811Z,8.87
2023-05-20T18:32:28.600Z,7.97
2023-05-20T18:34:58.018Z,6.50
2023-05-20T18:37:33.192Z,7.83
2023-05-20T18:40:06.681Z,7.30
2023-05-20T18:42:36.042Z,11.00
2023-05-20T18:45:08.390Z,7.83
2023-05-20T18:47:39.801Z,7.60
2023-05-20T18:50:14.076Z,9.77
2023-05-20T18:52:50.754Z,11.33
2023-05-20T18:55:19.873Z,7.80
2023-05-20T18:57:53.679Z,7.63
2023-05-20T19:00:25.506Z,8.33
2023-05-20T19:02:58.202Z,6.77
2023-05-20T19:05:30.329Z,7.37
2023-05-20T19:08:02.840Z,12.67
2023-05-20T19:10:32.002Z,7.23
2023-05-20T19:13:01.619Z,8.33
2023-05-20T19:15:32.771Z,8.30
2023-05-20T19:18:07.818Z,8.93
2023-05-20T19:20:44.152Z,7.97
2023-05-20T19:23:10.990Z,8.07
2023-05-20T19:25:42.300Z,11.87
2023-05-20T19:28:16.583Z,7.97
2023-05-20T19:30:43.577Z,7.30
2023-05-20T19:33:11.086Z,8.70
2023-05-20T19:35:38.231Z,8.53
2023-05-20T19:38:12.641Z,8.60
2023-05-20T19:40:43.912Z,11.80
2023-05-20T19:43:13.523Z,10.47
2023-05-20T19:45:42.787Z,8.57
2023-05-20T19:48:14.166Z,10.20
2023-05-20T19:50:46.161Z,9.67
2023-05-20T19:53:17.570Z,10.37
2023-05-20T19:55:46.870Z,8.73
2023-05-20T19:58:16.201Z,7.90
2023-05-20T20:00:45.492Z,9.53
2023-05-20T20:03:17.140Z,7.23
2023-05-20T20:05:46.624Z,8.23
2023-05-20T20:08:13.722Z,8.20
2023-05-20T20:10:42.917Z,9.00
2023-05-20T20:13:09.992Z,7.70
2023-05-20T20:15:41.855Z,9.93
2023-05-20T20:18:08.784Z,9.10
2023-05-20T20:20:40.113Z,8.30
2023-05-20T20:23:08.285Z,11.60
2023-05-20T20:25:39.048Z,8.07
2023-05-20T20:28:11.446Z,7.90
2023-05-20T20:30:40.719Z,7.87
2023-05-20T20:33:10.350Z,8.67
2023-05-20T20:35:42.192Z,8.10
2023-05-20T20:38:16.332Z,8.37
2023-05-20T20:40:46.170Z,9.47
2023-05-20T20:43:20.559Z,8.43
2023-05-20T20:45:51.068Z,8.23
2023-05-20T20:48:20.281Z,12.47
2023-05-20T20:50:48.322Z,8.13
2023-05-20T20:53:17.184Z,7.40
2023-05-20T20:55:47.652Z,9.83
2023-05-20T20:58:15.619Z,8.80
2023-05-20T21:00:48.917Z,8.90
2023-05-20T21:03:16.194Z,7.87
2023-05-20T21:05:43.157Z,8.70
2023-05-20T21:08:10.620Z,8.43
2023-05-20T21:10:38.436Z,8.77
2023-05-20T21:13:08.025Z,8.50
2023-05-20T21:15:35.169Z,7.83
2023-05-20T21:18:02.426Z,8.70
2023-05-20T21:20:29.692Z,10.27
2023-05-20T21:22:56.656Z,8.80
2023-05-20T21:25:23.552Z,7.83
2023-05-20T21:27:50.503Z,7.83
2023-05-20T21:30:20.328Z,7.50
2023-05-20T21:32:47.336Z,6.87
2023-05-20T21:35:16.640Z,8.23
2023-05-20T21:37:46.220Z,7.30
2023-05-20T21:40:13.734Z,8.87
2023-05-20T21:42:43.489Z,7.70
2023-05-20T21:45:11.094Z,6.93
2023-05-20T21:47:38.228Z,7.80
2023-05-20T21:50:05.761Z,7.27
2023-05-20T21:52:32.757Z,7.47
2023-05-20T21:54:59.726Z,6.80
2023-05-20T21:57:26.730Z,8.13
2023-05-20T21:59:53.586Z,7.73
2023-05-20T22:02:23.133Z,6.73
2023-05-20T22:04:50.562Z,6.57
2023-05-20T22:07:22.328Z,7.27
2023-05-20T22:09:49.270Z,8.13
2023-05-20T22:12:16.164Z,8.07
2023-05-20T22:14:43.249Z,7.90
2023-05-20T22:17:10.775Z,7.70
2023-05-20T22:19:40.402Z,7.20
2023-05-20T22:22:10.068Z,7.20
2023-05-20T22:24:37.119Z,6.77
2023-05-20T22:27:04.718Z,6.93
2023-05-20T22:29:33.666Z,7.03
2023-05-20T22:32:00.902Z,11.83
2023-05-20T22:34:33.059Z,6.27
2023-05-20T22:37:02.433Z,7.17
2023-05-20T22:39:29.388Z,5.93
2023-05-20T22:41:56.349Z,6.43
2023-05-20T22:44:23.275Z,6.90
2023-05-20T22:46:50.140Z,6.57
2023-05-20T22:49:19.385Z,6.77
2023-05-20T22:51:46.248Z,6.50
2023-05-20T22:54:13.250Z,6.77
2023-05-20T22:56:42.362Z,5.70
2023-05-20T22:59:09.291Z,6.07
2023-05-20T23:01:36.736Z,6.87
2023-05-20T23:04:03.865Z,5.00
2023-05-20T23:06:30.707Z,6.37
2023-05-20T23:08:57.555Z,7.30
2023-05-20T23:11:26.702Z,6.47
2023-05-20T23:13:55.881Z,6.77
2023-05-20T23:16:26.451Z,6.40
2023-05-20T23:18:56.345Z,6.17
2023-05-20T23:21:25.702Z,6.67
2023-05-20T23:23:52.876Z,6.17
2023-05-20T23:26:19.818Z,6.10
2023-05-20T23:28:48.047Z,6.10
2023-05-20T23:31:16.026Z,8.30
2023-05-20T23:33:43.421Z,7.00
2023-05-20T23:36:12.870Z,7.00
2023-05-20T23:38:40.170Z,5.23
2023-05-20T23:41:06.991Z,5.93
2023-05-20T23:43:34.050Z,5.63
2023-05-20T23:46:01.045Z,6.30
2023-05-20T23:48:27.891Z,7.00
2023-05-20T23:50:54.714Z,6.77
2023-05-20T23:53:23.838Z,6.27
2023-05-20T23:55:50.762Z,6.80
2023-05-20T23:58:17.636Z,5.60
